createdAt,value
2022-12-15T00:02:35.951Z,-2.41
2022-12-15T00:05:22.865Z,-2.41
2022-12-15T00:08:08.601Z,-2.41
2022-12-15T00:10:54.480Z,-2.40
2022-12-15T00:13:40.101Z,-2.39
2022-12-15T00:16:26.517Z,-2.38
2022-12-15T00:19:11.960Z,-2.39
2022-12-15T00:21:57.362Z,-2.38
2022-12-15T00:24:42.670Z,-2.37
2022-12-15T00:27:27.769Z,-2.36
2022-12-15T00:30:13.162Z,-2.36
2022-12-15T00:32:58.451Z,-2.36
2022-12-15T00:35:43.627Z,-2.36
2022-12-15T00:38:32.659Z,-2.36
2022-12-15T00:41:01.777Z,-2.35
2022-12-15T00:43:31.775Z,-2.35
2022-12-15T00:46:18.053Z,-2.34
2022-12-15T00:48:46.494Z,-2.33
2022-12-15T00:51:15.022Z,-2.33
2022-12-15T00:54:00.940Z,-2.33
2022-12-15T00:56:46.848Z,-2.32
2022-12-15T00:59:33.486Z,-2.32
2022-12-15T01:02:19.369Z,-2.31
2022-12-15T01:05:05.401Z,-2.30
2022-12-15T01:07:51.680Z,-2.31
2022-12-15T01:10:37.546Z,-2.31
2022-12-15T01:13:24.562Z,-2.31
2022-12-15T01:16:10.419Z,-2.30
2022-12-15T01:18:56.320Z,-2.30
2022-12-15T01:21:25.445Z,-2.30
2022-12-15T01:23:53.467Z,-2.30
2022-12-15T01:26:20.581Z,-2.29
2022-12-15T01:28:47.566Z,-2.29
2022-12-15T01:31:14.790Z,-2.29
2022-12-15T01:33:43.549Z,-2.30
2022-12-15T01:36:10.974Z,-2.30
2022-12-15T01:38:38.051Z,-2.30
2022-12-15T01:41:11.011Z,-2.31
2022-12-15T01:43:41.047Z,-2.31
2022-12-15T01:46:18.134Z,-2.31
2022-12-15T01:49:13.285Z,-2.30
2022-12-15T01:51:48.463Z,-2.30
2022-12-15T01:54:28.230Z,-2.31
2022-12-15T01:57:04.960Z,-2.31
2022-12-15T01:59:43.687Z,-2.31
2022-12-15T02:02:12.531Z,-2.30
2022-12-15T02:04:40.212Z,-2.30
2022-12-15T02:07:10.882Z,-2.30
2022-12-15T02:09:37.932Z,-2.28
2022-12-15T02:12:26.768Z,-2.28
2022-12-15T02:15:19.179Z,-2.28
2022-12-15T02:18:15.540Z,-2.27
2022-12-15T02:21:19.019Z,-2.28
2022-12-15T02:24:26.302Z,-2.26
2022-12-15T02:27:31.147Z,-2.25
2022-12-15T02:30:15.392Z,-2.26
2022-12-15T02:33:00.295Z,-2.26
2022-12-15T02:36:02.177Z,-2.24
2022-12-15T02:38:36.436Z,-2.25
2022-12-15T02:41:06.565Z,-2.25
2022-12-15T02:43:38.800Z,-2.25
2022-12-15T02:46:11.892Z,-2.25
2022-12-15T02:49:36.330Z,-2.24
2022-12-15T02:52:57.526Z,-2.25
2022-12-15T02:56:16.751Z,-2.25
2022-12-15T02:59:00.229Z,-2.25
2022-12-15T03:01:50.052Z,-2.26
2022-12-15T03:04:18.260Z,-2.25
2022-12-15T03:06:45.425Z,-2.24
2022-12-15T03:09:12.468Z,-2.26
2022-12-15T03:11:39.494Z,-2.26
2022-12-15T03:14:06.447Z,-2.25
2022-12-15T03:16:33.414Z,-2.26
2022-12-15T03:19:00.373Z,-2.26
2022-12-15T03:21:27.585Z,-2.25
2022-12-15T03:23:54.575Z,-2.25
2022-12-15T03:26:21.682Z,-2.25
2022-12-15T03:28:48.643Z,-2.25
2022-12-15T03:31:15.649Z,-2.24
2022-12-15T03:33:42.604Z,-2.25
2022-12-15T03:36:09.906Z,-2.23
2022-12-15T03:38:36.864Z,-2.23
2022-12-15T03:41:03.843Z,-2.23
2022-12-15T03:43:31.200Z,-2.24
2022-12-15T03:45:58.381Z,-2.24
2022-12-15T03:48:25.307Z,-2.24
2022-12-15T03:50:52.253Z,-2.23
2022-12-15T03:53:19.168Z,-2.23
2022-12-15T03:55:46.132Z,-2.23
2022-12-15T03:58:13.060Z,-2.24
2022-12-15T04:00:39.968Z,-2.24
2022-12-15T04:03:07.015Z,-2.23
2022-12-15T04:05:35.424Z,-2.23
2022-12-15T04:08:02.653Z,-2.23
2022-12-15T04:10:34.809Z,-2.23
2022-12-15T04:13:09.783Z,-2.23
2022-12-15T04:15:38.941Z,-2.22
2022-12-15T04:18:09.819Z,-2.23
2022-12-15T04:20:40.515Z,-2.22
2022-12-15T04:23:07.980Z,-2.24
2022-12-15T04:25:55.142Z,-2.24
2022-12-15T04:28:41.035Z,-2.24
2022-12-15T04:31:32.938Z,-2.24
2022-12-15T04:34:22.980Z,-2.24
2022-12-15T04:37:11.926Z,-2.25
2022-12-15T04:40:02.142Z,-2.26
2022-12-15T04:42:50.204Z,-2.27
2022-12-15T04:45:39.951Z,-2.27
2022-12-15T04:48:25.623Z,-2.28
2022-12-15T04:51:10.951Z,-2.29
2022-12-15T04:53:56.943Z,-2.29
2022-12-15T04:56:42.530Z,-2.30
2022-12-15T04:59:27.927Z,-2.30
2022-12-15T05:02:13.243Z,-2.29
2022-12-15T05:04:58.594Z,-2.29
2022-12-15T05:07:44.519Z,-2.29
2022-12-15T05:10:30.840Z,-2.28
2022-12-15T05:13:26.205Z,-2.30
2022-12-15T05:16:12.181Z,-2.29
2022-12-15T05:18:58.176Z,-2.29
2022-12-15T05:21:43.416Z,-2.29
2022-12-15T05:24:29.204Z,-2.30
2022-12-15T05:27:14.413Z,-2.30
2022-12-15T05:29:59.763Z,-2.32
2022-12-15T05:32:26.701Z,-2.32
2022-12-15T05:34:53.655Z,-2.32
2022-12-15T05:37:20.682Z,-2.33
2022-12-15T05:39:47.637Z,-2.33
2022-12-15T05:42:14.569Z,-2.35
2022-12-15T05:44:41.571Z,-2.34
2022-12-15T05:47:09.244Z,-2.35
2022-12-15T05:49:36.193Z,-2.35
2022-12-15T05:52:03.714Z,-2.36
2022-12-15T05:54:30.669Z,-2.37
2022-12-15T05:56:57.654Z,-2.37
2022-12-15T05:59:24.593Z,-2.38
2022-12-15T06:01:51.626Z,-2.38
2022-12-15T06:04:19.464Z,-2.39
2022-12-15T06:06:46.532Z,-2.38
2022-12-15T06:09:13.569Z,-2.39
2022-12-15T06:11:40.573Z,-2.39
2022-12-15T06:14:07.898Z,-2.39
2022-12-15T06:16:39.579Z,-2.39
2022-12-15T06:19:09.693Z,-2.39
2022-12-15T06:21:36.641Z,-2.40
2022-12-15T06:24:07.706Z,-2.40
2022-12-15T06:26:36.987Z,-2.40
2022-12-15T06:29:08.407Z,-2.41
2022-12-15T06:31:36.967Z,-2.41
2022-12-15T06:34:07.375Z,-2.41
2022-12-15T06:36:35.072Z,-2.41
2022-12-15T06:39:05.239Z,-2.41
2022-12-15T06:41:33.022Z,-2.42
2022-12-15T06:44:01.053Z,-2.41
2022-12-15T06:46:30.169Z,-2.42
2022-12-15T07:15:18.469Z,-2.48
2022-12-15T07:17:45.566Z,-2.47
2022-12-15T07:20:12.677Z,-2.48
2022-12-15T07:22:39.922Z,-2.48
2022-12-15T07:25:08.146Z,-2.47
2022-12-15T07:27:35.251Z,-2.48
2022-12-15T07:30:02.212Z,-2.49
2022-12-15T07:32:29.145Z,-2.51
2022-12-15T07:34:56.267Z,-2.53
2022-12-15T07:37:23.261Z,-2.57
2022-12-15T07:39:50.229Z,-2.59
2022-12-15T07:42:17.172Z,-2.62
2022-12-15T07:44:44.691Z,-2.66
2022-12-15T07:47:16.966Z,-2.70
2022-12-15T07:49:44.637Z,-2.74
2022-12-15T07:52:13.431Z,-2.78
2022-12-15T07:54:40.949Z,-2.81
2022-12-15T07:57:07.885Z,-2.87
2022-12-15T07:59:35.012Z,-2.90
2022-12-15T08:02:04.334Z,-2.95
2022-12-15T08:04:31.950Z,-2.99
2022-12-15T08:06:59.010Z,-3.01
2022-12-15T08:09:26.040Z,-3.04
2022-12-15T08:11:52.979Z,-3.07
2022-12-15T08:14:20.194Z,-3.10
2022-12-15T08:16:47.576Z,-3.10
2022-12-15T08:19:16.917Z,-3.11
2022-12-15T08:21:45.618Z,-3.13
2022-12-15T08:24:16.458Z,-3.14
2022-12-15T08:26:44.965Z,-3.14
2022-12-15T08:29:49.481Z,-3.16
2022-12-15T08:37:20.281Z,-3.15
2022-12-15T08:39:47.943Z,-3.14
2022-12-15T08:42:14.973Z,-3.11
2022-12-15T08:44:41.913Z,-3.07
2022-12-15T08:47:08.869Z,-3.02
2022-12-15T08:49:35.860Z,-2.95
2022-12-15T08:52:02.816Z,-2.89
2022-12-15T08:54:29.906Z,-2.82
2022-12-15T08:56:56.824Z,-2.73
2022-12-15T08:59:23.824Z,-2.65
2022-12-15T09:01:51.018Z,-2.55
2022-12-15T09:04:18.210Z,-2.45
2022-12-15T09:06:50.240Z,-2.35
2022-12-15T09:09:18.476Z,-2.24
2022-12-15T09:11:45.432Z,-2.14
2022-12-15T09:14:12.345Z,-2.05
2022-12-15T09:16:39.319Z,-1.95
2022-12-15T09:19:08.165Z,-1.85
2022-12-15T09:21:35.244Z,-1.77
2022-12-15T09:24:04.028Z,-1.71
2022-12-15T09:26:34.205Z,-1.63
2022-12-15T09:29:02.301Z,-1.60
2022-12-15T09:31:33.084Z,-1.58
2022-12-15T09:34:01.110Z,-1.56
2022-12-15T09:36:29.927Z,-1.54
2022-12-15T09:38:56.900Z,-1.50
2022-12-15T09:41:35.724Z,-1.46
2022-12-15T09:44:20.372Z,-1.40
2022-12-15T09:47:13.114Z,-1.34
2022-12-15T09:49:56.236Z,-1.31
2022-12-15T09:52:27.659Z,-1.26
2022-12-15T09:54:56.637Z,-1.20
2022-12-15T09:57:54.588Z,-1.14
2022-12-15T10:00:39.445Z,-1.08
2022-12-15T10:03:14.874Z,-1.04
2022-12-15T10:06:21.285Z,-0.97
2022-12-15T10:08:50.963Z,-0.92
2022-12-15T10:11:50.555Z,-0.89
2022-12-15T10:14:41.442Z,-0.83
2022-12-15T10:17:21.441Z,-0.78
2022-12-15T10:20:14.332Z,-0.75
2022-12-15T10:22:42.070Z,-0.71
2022-12-15T10:25:27.490Z,-0.67
2022-12-15T10:28:27.063Z,-0.63
2022-12-15T10:31:28.947Z,-0.57
2022-12-15T10:34:11.216Z,-0.53
2022-12-15T10:36:38.388Z,-0.49
2022-12-15T10:39:05.326Z,-0.46
2022-12-15T10:41:33.655Z,-0.42
2022-12-15T10:44:02.538Z,-0.38
2022-12-15T10:46:31.804Z,-0.34
2022-12-15T10:49:06.127Z,-0.29
2022-12-15T10:51:57.182Z,-0.26
2022-12-15T10:54:27.245Z,-0.24
2022-12-15T10:56:56.086Z,-0.24
2022-12-15T10:59:22.879Z,-0.24
2022-12-15T11:01:51.509Z,-0.24
2022-12-15T11:04:29.609Z,-0.23
2022-12-15T11:07:02.145Z,-0.23
2022-12-15T11:09:36.963Z,-0.25
2022-12-15T11:12:41.928Z,-0.26
2022-12-15T11:15:23.784Z,-0.26
2022-12-15T11:18:07.214Z,-0.25
2022-12-15T11:20:40.057Z,-0.26
2022-12-15T11:23:33.353Z,-0.24
2022-12-15T11:26:08.657Z,-0.24
2022-12-15T11:28:46.845Z,-0.21
2022-12-15T11:31:36.751Z,-0.19
2022-12-15T11:34:15.717Z,-0.18
2022-12-15T11:37:18.416Z,-0.15
2022-12-15T11:40:19.063Z,-0.16
2022-12-15T11:43:29.015Z,-0.16
2022-12-15T11:46:24.206Z,-0.16
2022-12-15T11:49:16.364Z,-0.17
2022-12-15T11:52:11.423Z,-0.19
2022-12-15T11:54:52.082Z,-0.20
2022-12-15T11:58:08.084Z,-0.19
2022-12-15T12:01:01.750Z,-0.21
2022-12-15T12:03:54.116Z,-0.23
2022-12-15T12:06:38.363Z,-0.25
2022-12-15T12:09:44.053Z,-0.25
2022-12-15T12:12:50.517Z,-0.26
2022-12-15T12:15:33.709Z,-0.28
2022-12-15T12:18:31.939Z,-0.29
2022-12-15T12:21:13.705Z,-0.30
2022-12-15T12:24:14.792Z,-0.30
2022-12-15T12:26:56.524Z,-0.33
2022-12-15T12:29:43.007Z,-0.33
2022-12-15T12:32:28.232Z,-0.36
2022-12-15T12:35:32.324Z,-0.35
2022-12-15T12:38:11.358Z,-0.39
2022-12-15T12:40:41.279Z,-0.40
2022-12-15T12:43:14.197Z,-0.41
2022-12-15T12:45:57.132Z,-0.41
2022-12-15T12:48:36.314Z,-0.43
2022-12-15T12:51:41.201Z,-0.45
2022-12-15T12:54:33.868Z,-0.47
2022-12-15T12:57:02.397Z,-0.48
2022-12-15T12:59:29.176Z,-0.50
2022-12-15T13:02:21.673Z,-0.50
2022-12-15T13:04:57.397Z,-0.52
2022-12-15T13:07:40.759Z,-0.55
2022-12-15T13:10:20.800Z,-0.56
2022-12-15T13:12:51.434Z,-0.58
2022-12-15T13:15:40.966Z,-0.61
2022-12-15T13:18:22.801Z,-0.61
2022-12-15T13:20:55.217Z,-0.63
2022-12-15T13:23:22.030Z,-0.64
2022-12-15T13:25:58.003Z,-0.64
2022-12-15T13:28:48.964Z,-0.66
2022-12-15T13:31:17.892Z,-0.67
2022-12-15T13:33:50.426Z,-0.66
2022-12-15T13:36:42.196Z,-0.65
2022-12-15T13:39:14.820Z,-0.66
2022-12-15T13:44:54.787Z,-0.67
2022-12-15T13:47:29.986Z,-0.66
2022-12-15T13:50:11.914Z,-0.64
2022-12-15T13:55:40.195Z,-0.59
2022-12-15T13:58:17.592Z,-0.55
2022-12-15T14:00:57.930Z,-0.50
2022-12-15T14:03:26.212Z,-0.47
2022-12-15T14:05:59.083Z,-0.44
2022-12-15T14:08:29.661Z,-0.41
2022-12-15T14:11:07.002Z,-0.42
2022-12-15T14:13:46.018Z,-0.43
2022-12-15T14:16:22.290Z,-0.44
2022-12-15T14:19:16.705Z,-0.46
2022-12-15T14:21:59.456Z,-0.49
2022-12-15T14:24:39.601Z,-0.52
2022-12-15T14:27:07.265Z,-0.56
2022-12-15T14:29:34.482Z,-0.60
2022-12-15T14:32:02.078Z,-0.63
2022-12-15T14:34:41.682Z,-0.65
2022-12-15T14:37:17.281Z,-0.69
2022-12-15T14:39:50.192Z,-0.74
2022-12-15T14:42:27.877Z,-0.79
2022-12-15T14:48:21.483Z,-0.90
2022-12-15T14:50:49.011Z,-0.95
2022-12-15T14:53:18.268Z,-1.01
2022-12-15T14:55:45.253Z,-1.09
2022-12-15T14:58:35.385Z,-1.14
2022-12-15T15:01:04.107Z,-1.19
2022-12-15T15:03:09.638Z,-0.66
2022-12-15T15:03:14.461Z,-0.84
2022-12-15T15:03:40.845Z,-1.26
2022-12-15T15:06:11.237Z,-1.31
2022-12-15T15:08:52.684Z,-1.36
2022-12-15T15:11:25.164Z,-1.43
2022-12-15T15:14:08.881Z,-1.48
2022-12-15T15:16:35.905Z,-1.55
2022-12-15T15:19:05.361Z,-1.61
2022-12-15T15:21:38.890Z,-1.68
2022-12-15T15:24:11.910Z,-1.74
2022-12-15T15:26:43.143Z,-1.81
2022-12-15T15:29:40.958Z,-1.87
2022-12-15T15:32:18.264Z,-1.95
2022-12-15T15:34:46.993Z,-2.02
2022-12-15T15:37:22.774Z,-2.07
2022-12-15T15:39:54.882Z,-2.14
2022-12-15T15:42:25.456Z,-2.18
2022-12-15T15:44:57.407Z,-2.24
2022-12-15T15:47:26.089Z,-2.30
2022-12-15T15:49:55.500Z,-2.35
2022-12-15T15:52:22.793Z,-2.39
2022-12-15T15:54:51.498Z,-2.44
2022-12-15T15:57:19.155Z,-2.49
2022-12-15T15:59:46.927Z,-2.54
2022-12-15T16:02:15.164Z,-2.59
2022-12-15T16:04:43.880Z,-2.62
2022-12-15T16:07:24.048Z,-2.67
2022-12-15T16:09:53.228Z,-2.70
2022-12-15T16:12:40.704Z,-2.74
2022-12-15T16:15:18.279Z,-2.77
2022-12-15T16:17:46.294Z,-2.79
2022-12-15T16:20:15.842Z,-2.81
2022-12-15T16:22:46.845Z,-2.83
2022-12-15T16:25:38.849Z,-2.84
2022-12-15T16:28:22.229Z,-2.87
2022-12-15T16:30:50.384Z,-2.87
2022-12-15T16:33:18.108Z,-2.88
2022-12-15T16:35:48.134Z,-2.89
2022-12-15T16:38:27.215Z,-2.90
2022-12-15T16:40:55.500Z,-2.90
2022-12-15T16:43:28.936Z,-2.90
2022-12-15T16:45:57.232Z,-2.91
2022-12-15T16:48:24.595Z,-2.93
2022-12-15T16:50:55.967Z,-2.95
2022-12-15T16:53:27.652Z,-2.96
2022-12-15T16:55:59.055Z,-2.98
2022-12-15T16:58:28.422Z,-2.99
2022-12-15T17:00:55.883Z,-3.00
2022-12-15T17:03:26.686Z,-3.03
2022-12-15T17:06:01.564Z,-3.06
2022-12-15T17:08:48.775Z,-3.07
2022-12-15T17:11:23.329Z,-3.10
2022-12-15T17:13:56.707Z,-3.13
2022-12-15T17:16:25.810Z,-3.15
2022-12-15T17:18:53.163Z,-3.17
2022-12-15T17:21:32.192Z,-3.19
2022-12-15T17:24:08.732Z,-3.21
2022-12-15T17:26:37.006Z,-3.23
2022-12-15T17:29:14.688Z,-3.25
2022-12-15T17:31:41.766Z,-3.26
2022-12-15T17:34:33.680Z,-3.28
2022-12-15T17:37:04.254Z,-3.30
2022-12-15T17:39:34.520Z,-3.31
2022-12-15T17:42:02.586Z,-3.33
2022-12-15T17:44:36.747Z,-3.33
2022-12-15T17:47:07.820Z,-3.34
2022-12-15T17:49:37.528Z,-3.33
2022-12-15T17:52:30.210Z,-3.36
2022-12-15T17:54:57.725Z,-3.35
2022-12-15T17:57:25.622Z,-3.35
2022-12-15T17:59:52.663Z,-3.35
2022-12-15T18:02:19.709Z,-3.35
2022-12-15T18:04:50.118Z,-3.32
2022-12-15T18:07:23.647Z,-3.32
2022-12-15T18:09:52.100Z,-3.30
2022-12-15T18:12:27.119Z,-3.28
2022-12-15T18:14:56.111Z,-3.25
2022-12-15T18:17:23.841Z,-3.25
2022-12-15T18:19:50.994Z,-3.22
2022-12-15T18:22:23.420Z,-3.21
2022-12-15T18:24:54.261Z,-3.17
2022-12-15T18:27:26.604Z,-3.16
2022-12-15T18:29:54.565Z,-3.13
2022-12-15T18:32:25.292Z,-3.11
2022-12-15T18:34:53.445Z,-3.10
2022-12-15T18:37:24.499Z,-3.08
2022-12-15T18:39:51.457Z,-3.06
2022-12-15T18:42:21.195Z,-3.05
2022-12-15T18:44:51.477Z,-3.03
2022-12-15T18:47:22.122Z,-3.03
2022-12-15T18:49:49.404Z,-3.02
2022-12-15T18:52:22.582Z,-3.00
2022-12-15T18:54:52.210Z,-3.01
2022-12-15T18:57:30.820Z,-2.99
2022-12-15T19:00:01.587Z,-3.02
2022-12-15T19:02:28.712Z,-3.00
2022-12-15T19:04:55.794Z,-3.02
2022-12-15T19:07:22.807Z,-3.02
2022-12-15T19:09:50.137Z,-3.02
2022-12-15T19:12:17.668Z,-3.03
2022-12-15T19:14:47.376Z,-3.04
2022-12-15T19:17:43.450Z,-3.04
2022-12-15T19:20:38.399Z,-3.06
2022-12-15T19:23:06.794Z,-3.08
2022-12-15T19:25:34.188Z,-3.08
2022-12-15T19:28:01.987Z,-3.08
2022-12-15T19:30:37.027Z,-3.09
2022-12-15T19:33:07.892Z,-3.10
2022-12-15T19:35:36.039Z,-3.11
2022-12-15T19:38:04.193Z,-3.12
2022-12-15T19:40:33.752Z,-3.11
2022-12-15T19:43:02.112Z,-3.11
2022-12-15T19:45:31.612Z,-3.12
2022-12-15T19:47:59.278Z,-3.12
2022-12-15T19:50:35.959Z,-3.13
2022-12-15T19:53:13.237Z,-3.13
2022-12-15T19:55:40.468Z,-3.15
2022-12-15T19:58:27.748Z,-3.15
2022-12-15T20:01:02.031Z,-3.16
2022-12-15T20:03:32.362Z,-3.17
2022-12-15T20:06:02.448Z,-3.19
2022-12-15T20:08:36.887Z,-3.20
2022-12-15T20:11:05.048Z,-3.22
2022-12-15T20:13:32.458Z,-3.23
2022-12-15T20:15:59.586Z,-3.25
2022-12-15T20:18:26.633Z,-3.24
2022-12-15T20:20:53.876Z,-3.27
2022-12-15T20:23:26.539Z,-3.29
2022-12-15T20:25:56.206Z,-3.29
2022-12-15T20:28:28.038Z,-3.32
2022-12-15T20:30:57.140Z,-3.33
2022-12-15T20:33:24.680Z,-3.33
2022-12-15T20:35:52.030Z,-3.34
2022-12-15T20:38:33.623Z,-3.37
2022-12-15T20:41:02.559Z,-3.37
2022-12-15T20:43:32.359Z,-3.39
2022-12-15T20:46:21.639Z,-3.40
2022-12-15T20:48:50.733Z,-3.43
2022-12-15T20:51:30.828Z,-3.45
2022-12-15T20:54:01.210Z,-3.44
2022-12-15T20:56:28.773Z,-3.47
2022-12-15T20:58:57.934Z,-3.49
2022-12-15T21:01:31.676Z,-3.49
2022-12-15T21:04:02.604Z,-3.50
2022-12-15T21:06:30.953Z,-3.53
2022-12-15T21:08:57.904Z,-3.53
2022-12-15T21:11:28.555Z,-3.52
2022-12-15T21:13:58.741Z,-3.54
2022-12-15T21:16:30.633Z,-3.54
2022-12-15T21:19:19.645Z,-3.56
2022-12-15T21:21:55.122Z,-3.57
2022-12-15T21:24:28.093Z,-3.59
2022-12-15T21:26:55.423Z,-3.59
2022-12-15T21:29:25.713Z,-3.60
2022-12-15T21:31:53.003Z,-3.60
2022-12-15T21:34:20.132Z,-3.62
2022-12-15T21:36:51.999Z,-3.62
2022-12-15T21:39:30.019Z,-3.61
2022-12-15T21:42:12.488Z,-3.61
2022-12-15T21:44:39.487Z,-3.62
2022-12-15T21:47:46.467Z,-3.61
2022-12-15T21:50:15.108Z,-3.63
2022-12-15T21:52:42.580Z,-3.62
2022-12-15T21:55:24.480Z,-3.62
2022-12-15T21:57:51.803Z,-3.63
2022-12-15T22:00:21.141Z,-3.62
2022-12-15T22:02:50.365Z,-3.62
2022-12-15T22:05:23.098Z,-3.62
2022-12-15T22:07:50.701Z,-3.62
2022-12-15T22:10:19.097Z,-3.62
2022-12-15T22:12:57.441Z,-3.62
2022-12-15T22:15:26.927Z,-3.61
2022-12-15T22:17:53.858Z,-3.60
2022-12-15T22:20:24.433Z,-3.61
2022-12-15T22:22:51.865Z,-3.59
2022-12-15T22:25:25.044Z,-3.59
2022-12-15T22:27:52.483Z,-3.57
2022-12-15T22:30:26.643Z,-3.56
2022-12-15T22:32:53.970Z,-3.56
2022-12-15T22:35:24.998Z,-3.56
2022-12-15T22:37:56.015Z,-3.54
2022-12-15T22:40:24.008Z,-3.55
2022-12-15T22:42:57.028Z,-3.54
2022-12-15T22:45:24.321Z,-3.53
2022-12-15T22:50:40.664Z,-3.51
2022-12-15T22:53:18.605Z,-3.49
2022-12-15T22:55:48.269Z,-3.48
2022-12-15T22:58:28.569Z,-3.46
2022-12-15T23:00:57.635Z,-3.45
2022-12-15T23:03:28.814Z,-3.43
2022-12-15T23:05:56.591Z,-3.43
2022-12-15T23:08:23.488Z,-3.40
2022-12-15T23:11:08.722Z,-3.38
2022-12-15T23:13:35.732Z,-3.36
2022-12-15T23:16:22.728Z,-3.34
2022-12-15T23:18:54.762Z,-3.34
2022-12-15T23:21:23.712Z,-3.32
2022-12-15T23:23:51.360Z,-3.30
2022-12-15T23:26:22.826Z,-3.29
2022-12-15T23:28:49.780Z,-3.27
2022-12-15T23:31:17.934Z,-3.26
2022-12-15T23:33:45.178Z,-3.25
2022-12-15T23:36:13.260Z,-3.22
2022-12-15T23:38:40.350Z,-3.21
2022-12-15T23:41:07.290Z,-3.17
2022-12-15T23:43:35.475Z,-3.17
2022-12-15T23:46:05.860Z,-3.15
2022-12-15T23:48:39.412Z,-3.15
2022-12-15T23:51:15.313Z,-3.12
2022-12-15T23:53:43.524Z,-3.11
2022-12-15T23:56:13.240Z,-3.11
2022-12-15T23:58:42.625Z,-3.10
